sensor_id;sensor_type;location;lat;lon;timestamp;pressure;altitude;pressure_sealevel;temperature;humidity
41800;BME280;27468;47.460;19.034;2023-02-13T00:01:59;102615.41;;;-0.32;83.65
41800;BME280;27468;47.460;19.034;2023-02-13T00:04:25;102613.63;;;-0.34;83.42
41800;BME280;27468;47.460;19.034;2023-02-13T00:06:50;102565.34;;;-0.61;83.54
41800;BME280;27468;47.460;19.034;2023-02-13T00:09:16;102574.63;;;-0.64;83.55
41800;BME280;27468;47.460;19.034;2023-02-13T00:11:41;102602.94;;;-0.53;83.65
41800;BME280;27468;47.460;19.034;2023-02-13T00:14:07;102597.69;;;-0.54;83.72
41800;BME280;27468;47.460;19.034;2023-02-13T00:16:33;102629.69;;;-0.39;83.67
41800;BME280;27468;47.460;19.034;2023-02-13T00:18:58;102599.22;;;-0.58;83.56
41800;BME280;27468;47.460;19.034;2023-02-13T00:21:23;102531.13;;;-0.98;83.48
41800;BME280;27468;47.460;19.034;2023-02-13T00:23:49;102599.84;;;-0.62;84.02
41800;BME280;27468;47.460;19.034;2023-02-13T00:26:15;102595.97;;;-0.69;83.74
41800;BME280;27468;47.460;19.034;2023-02-13T00:28:42;102640.13;;;-0.52;84.05
41800;BME280;27468;47.460;19.034;2023-02-13T00:31:09;102619.47;;;-0.65;83.79
41800;BME280;27468;47.460;19.034;2023-02-13T00:33:37;102611.41;;;-0.70;83.92
41800;BME280;27468;47.460;19.034;2023-02-13T00:36:21;102611.50;;;-0.69;83.97
41800;BME280;27468;47.460;19.034;2023-02-13T00:38:47;102571.06;;;-0.94;83.65
41800;BME280;27468;47.460;19.034;2023-02-13T00:41:14;102633.59;;;-0.60;83.83
41800;BME280;27468;47.460;19.034;2023-02-13T00:43:42;102580.53;;;-0.95;83.97
41800;BME280;27468;47.460;19.034;2023-02-13T00:46:07;102581.13;;;-0.99;83.87
41800;BME280;27468;47.460;19.034;2023-02-13T00:48:33;102625.88;;;-0.74;83.99
41800;BME280;27468;47.460;19.034;2023-02-13T00:50:59;102625.78;;;-0.75;83.76
41800;BME280;27468;47.460;19.034;2023-02-13T00:53:25;102624.78;;;-0.77;83.92
41800;BME280;27468;47.460;19.034;2023-02-13T00:55:51;102629.97;;;-0.77;83.91
41800;BME280;27468;47.460;19.034;2023-02-13T00:58:17;102617.53;;;-0.83;84.15
41800;BME280;27468;47.460;19.034;2023-02-13T01:00:44;102636.94;;;-0.76;83.83
41800;BME280;27468;47.460;19.034;2023-02-13T01:03:12;102624.69;;;-0.79;84.08
41800;BME280;27468;47.460;19.034;2023-02-13T01:05:37;102629.78;;;-0.80;83.94
41800;BME280;27468;47.460;19.034;2023-02-13T01:08:04;102574.88;;;-1.03;83.91
41800;BME280;27468;47.460;19.034;2023-02-13T01:10:29;102598.03;;;-0.91;83.83
41800;BME280;27468;47.460;19.034;2023-02-13T01:12:55;102549.56;;;-1.21;84.09
41800;BME280;27468;47.460;19.034;2023-02-13T01:15:21;102594.88;;;-1.00;83.86
41800;BME280;27468;47.460;19.034;2023-02-13T01:17:46;102575.28;;;-1.10;83.53
41800;BME280;27468;47.460;19.034;2023-02-13T01:20:13;102597.38;;;-1.02;83.81
41800;BME280;27468;47.460;19.034;2023-02-13T01:22:39;102603.34;;;-1.03;84.04
41800;BME280;27468;47.460;19.034;2023-02-13T01:25:05;102590.00;;;-1.09;83.96
41800;BME280;27468;47.460;19.034;2023-02-13T01:27:31;102594.50;;;-1.06;83.59
41800;BME280;27468;47.460;19.034;2023-02-13T01:29:57;102511.13;;;-1.56;84.05
41800;BME280;27468;47.460;19.034;2023-02-13T01:32:23;102572.88;;;-1.35;83.69
41800;BME280;27468;47.460;19.034;2023-02-13T01:34:49;102551.69;;;-1.42;83.98
41800;BME280;27468;47.460;19.034;2023-02-13T01:37:15;102594.81;;;-1.15;84.00
41800;BME280;27468;47.460;19.034;2023-02-13T01:39:40;102584.09;;;-1.21;83.81
41800;BME280;27468;47.460;19.034;2023-02-13T01:42:15;102545.53;;;-1.44;83.73
41800;BME280;27468;47.460;19.034;2023-02-13T01:44:52;102586.78;;;-1.19;83.95
41800;BME280;27468;47.460;19.034;2023-02-13T01:47:45;102593.56;;;-1.21;84.39
41800;BME280;27468;47.460;19.034;2023-02-13T01:50:17;102573.25;;;-1.28;84.56
41800;BME280;27468;47.460;19.034;2023-02-13T01:52:50;102550.50;;;-1.47;84.75
41800;BME280;27468;47.460;19.034;2023-02-13T01:55:18;102598.44;;;-1.26;84.96
41800;BME280;27468;47.460;19.034;2023-02-13T01:57:49;102586.72;;;-1.34;85.12
41800;BME280;27468;47.460;19.034;2023-02-13T02:00:17;102572.19;;;-1.45;85.33
41800;BME280;27468;47.460;19.034;2023-02-13T02:02:46;102572.38;;;-1.42;84.79
41800;BME280;27468;47.460;19.034;2023-02-13T02:05:15;102602.53;;;-1.29;85.42
41800;BME280;27468;47.460;19.034;2023-02-13T02:07:42;102570.50;;;-1.45;85.08
41800;BME280;27468;47.460;19.034;2023-02-13T02:10:12;102595.56;;;-1.30;85.15
41800;BME280;27468;47.460;19.034;2023-02-13T02:15:14;102588.69;;;-1.30;85.00
41800;BME280;27468;47.460;19.034;2023-02-13T02:17:40;102541.75;;;-1.62;85.25
41800;BME280;27468;47.460;19.034;2023-02-13T02:28:52;102590.50;;;-1.42;85.41
41800;BME280;27468;47.460;19.034;2023-02-13T02:34:25;102591.69;;;-1.37;85.28
41800;BME280;27468;47.460;19.034;2023-02-13T02:42:56;102545.84;;;-1.66;84.75
41800;BME280;27468;47.460;19.034;2023-02-13T02:48:16;102567.13;;;-1.57;84.63
41800;BME280;27468;47.460;19.034;2023-02-13T02:51:15;102536.34;;;-1.80;84.61
41800;BME280;27468;47.460;19.034;2023-02-13T02:53:46;102593.59;;;-1.48;84.84
41800;BME280;27468;47.460;19.034;2023-02-13T02:56:36;102572.19;;;-1.58;84.60
41800;BME280;27468;47.460;19.034;2023-02-13T02:59:12;102601.16;;;-1.51;84.81
41800;BME280;27468;47.460;19.034;2023-02-13T03:01:57;102538.81;;;-1.82;84.85
41800;BME280;27468;47.460;19.034;2023-02-13T03:04:58;102591.50;;;-1.53;84.77
41800;BME280;27468;47.460;19.034;2023-02-13T03:07:43;102580.75;;;-1.59;84.55
41800;BME280;27468;47.460;19.034;2023-02-13T03:10:15;102531.66;;;-1.86;84.16
41800;BME280;27468;47.460;19.034;2023-02-13T03:13:08;102589.00;;;-1.52;84.23
41800;BME280;27468;47.460;19.034;2023-02-13T03:15:47;102581.06;;;-1.55;84.24
41800;BME280;27468;47.460;19.034;2023-02-13T03:18:36;102590.31;;;-1.58;84.01
41800;BME280;27468;47.460;19.034;2023-02-13T03:22:16;102590.69;;;-1.66;84.22
41800;BME280;27468;47.460;19.034;2023-02-13T03:27:32;102597.47;;;-1.68;83.89
41800;BME280;27468;47.460;19.034;2023-02-13T03:39:19;102538.22;;;-2.04;83.81
41800;BME280;27468;47.460;19.034;2023-02-13T03:41:59;102576.91;;;-1.79;84.01
41800;BME280;27468;47.460;19.034;2023-02-13T03:46:54;102580.75;;;-1.73;83.54
41800;BME280;27468;47.460;19.034;2023-02-13T03:49:23;102576.72;;;-1.82;83.92
41800;BME280;27468;47.460;19.034;2023-02-13T03:55:11;102550.34;;;-1.90;83.94
41800;BME280;27468;47.460;19.034;2023-02-13T03:57:58;102564.28;;;-1.88;83.45
41800;BME280;27468;47.460;19.034;2023-02-13T04:00:47;102575.72;;;-1.84;83.46
41800;BME280;27468;47.460;19.034;2023-02-13T04:03:36;102578.28;;;-1.84;83.30
41800;BME280;27468;47.460;19.034;2023-02-13T04:06:09;102562.19;;;-1.93;83.09
41800;BME280;27468;47.460;19.034;2023-02-13T04:08:35;102556.41;;;-2.03;83.15
41800;BME280;27468;47.460;19.034;2023-02-13T04:13:55;102582.16;;;-1.91;83.28
41800;BME280;27468;47.460;19.034;2023-02-13T04:16:27;102573.13;;;-1.97;83.12
41800;BME280;27468;47.460;19.034;2023-02-13T04:18:55;102582.75;;;-2.08;83.50
41800;BME280;27468;47.460;19.034;2023-02-13T04:21:22;102592.91;;;-1.98;83.62
41800;BME280;27468;47.460;19.034;2023-02-13T04:23:48;102567.75;;;-2.01;83.08
41800;BME280;27468;47.460;19.034;2023-02-13T04:26:17;102574.81;;;-1.98;82.95
41800;BME280;27468;47.460;19.034;2023-02-13T04:28:43;102569.84;;;-1.95;83.27
41800;BME280;27468;47.460;19.034;2023-02-13T04:31:09;102508.88;;;-2.31;83.22
41800;BME280;27468;47.460;19.034;2023-02-13T04:33:34;102544.25;;;-2.17;83.12
41800;BME280;27468;47.460;19.034;2023-02-13T04:36:00;102545.47;;;-2.12;83.07
41800;BME280;27468;47.460;19.034;2023-02-13T04:38:25;102560.78;;;-2.02;82.90
41800;BME280;27468;47.460;19.034;2023-02-13T04:40:50;102565.47;;;-1.96;82.73
41800;BME280;27468;47.460;19.034;2023-02-13T04:43:16;102540.00;;;-2.16;82.64
41800;BME280;27468;47.460;19.034;2023-02-13T04:45:41;102541.09;;;-2.13;83.19
41800;BME280;27468;47.460;19.034;2023-02-13T04:48:07;102525.38;;;-2.29;83.18
41800;BME280;27468;47.460;19.034;2023-02-13T04:50:33;102514.34;;;-2.40;83.04
41800;BME280;27468;47.460;19.034;2023-02-13T04:52:58;102569.44;;;-2.01;82.83
41800;BME280;27468;47.460;19.034;2023-02-13T04:55:25;102570.22;;;-2.02;82.61
41800;BME280;27468;47.460;19.034;2023-02-13T04:57:54;102530.44;;;-2.30;83.10
41800;BME280;27468;47.460;19.034;2023-02-13T05:00:22;102569.63;;;-2.11;82.91
41800;BME280;27468;47.460;19.034;2023-02-13T05:02:47;102558.88;;;-2.17;82.80
41800;BME280;27468;47.460;19.034;2023-02-13T05:05:13;102535.31;;;-2.22;82.90
41800;BME280;27468;47.460;19.034;2023-02-13T05:07:40;102567.63;;;-2.15;83.13
41800;BME280;27468;47.460;19.034;2023-02-13T05:10:05;102485.28;;;-2.62;82.80
41800;BME280;27468;47.460;19.034;2023-02-13T05:12:31;102566.41;;;-2.20;83.32
41800;BME280;27468;47.460;19.034;2023-02-13T05:14:56;102557.34;;;-2.27;83.28
41800;BME280;27468;47.460;19.034;2023-02-13T05:17:22;102539.50;;;-2.37;83.28
41800;BME280;27468;47.460;19.034;2023-02-13T05:19:47;102563.44;;;-2.26;82.90
41800;BME280;27468;47.460;19.034;2023-02-13T05:22:12;102512.84;;;-2.49;82.92
41800;BME280;27468;47.460;19.034;2023-02-13T05:24:56;102485.09;;;-2.65;82.79
41800;BME280;27468;47.460;19.034;2023-02-13T05:27:22;102555.69;;;-2.26;82.87
41800;BME280;27468;47.460;19.034;2023-02-13T05:29:47;102475.03;;;-2.74;82.88
41800;BME280;27468;47.460;19.034;2023-02-13T05:32:13;102507.25;;;-2.55;82.82
41800;BME280;27468;47.460;19.034;2023-02-13T05:34:38;102524.16;;;-2.47;82.75
41800;BME280;27468;47.460;19.034;2023-02-13T05:37:04;102508.38;;;-2.52;82.59
41800;BME280;27468;47.460;19.034;2023-02-13T05:39:29;102494.72;;;-2.62;82.82
41800;BME280;27468;47.460;19.034;2023-02-13T05:41:55;102561.16;;;-2.35;82.55
41800;BME280;27468;47.460;19.034;2023-02-13T05:44:20;102518.38;;;-2.56;82.57
41800;BME280;27468;47.460;19.034;2023-02-13T05:46:45;102518.59;;;-2.53;82.51
41800;BME280;27468;47.460;19.034;2023-02-13T05:49:12;102557.56;;;-2.37;82.21
41800;BME280;27468;47.460;19.034;2023-02-13T05:51:38;102542.13;;;-2.49;82.51
41800;BME280;27468;47.460;19.034;2023-02-13T05:54:03;102556.56;;;-2.39;82.87
41800;BME280;27468;47.460;19.034;2023-02-13T05:56:29;102463.97;;;-2.97;82.69
41800;BME280;27468;47.460;19.034;2023-02-13T05:58:55;102502.03;;;-2.82;82.96
41800;BME280;27468;47.460;19.034;2023-02-13T06:01:21;102552.16;;;-2.53;83.09
41800;BME280;27468;47.460;19.034;2023-02-13T06:03:47;102561.00;;;-2.50;83.56
41800;BME280;27468;47.460;19.034;2023-02-13T06:06:13;102541.09;;;-2.64;83.61
41800;BME280;27468;47.460;19.034;2023-02-13T06:08:39;102533.94;;;-2.68;83.62
41800;BME280;27468;47.460;19.034;2023-02-13T06:11:04;102516.44;;;-2.72;83.29
41800;BME280;27468;47.460;19.034;2023-02-13T06:13:30;102507.38;;;-2.79;83.20
41800;BME280;27468;47.460;19.034;2023-02-13T06:15:55;102573.25;;;-2.47;83.19
41800;BME280;27468;47.460;19.034;2023-02-13T06:18:21;102578.72;;;-2.43;82.93
41800;BME280;27468;47.460;19.034;2023-02-13T06:20:47;102590.25;;;-2.38;82.96
41800;BME280;27468;47.460;19.034;2023-02-13T06:23:12;102549.97;;;-2.60;82.84
41800;BME280;27468;47.460;19.034;2023-02-13T06:25:38;102519.34;;;-2.68;82.81
41800;BME280;27468;47.460;19.034;2023-02-13T06:28:04;102576.66;;;-2.35;82.63
41800;BME280;27468;47.460;19.034;2023-02-13T06:30:30;102587.78;;;-2.23;82.55
41800;BME280;27468;47.460;19.034;2023-02-13T06:32:56;102595.16;;;-2.16;82.42
41800;BME280;27468;47.460;19.034;2023-02-13T06:35:21;102546.72;;;-2.45;82.38
41800;BME280;27468;47.460;19.034;2023-02-13T06:37:47;102582.63;;;-2.23;82.47
41800;BME280;27468;47.460;19.034;2023-02-13T06:40:13;102611.38;;;-2.05;82.60
41800;BME280;27468;47.460;19.034;2023-02-13T06:42:41;102609.59;;;-2.06;82.74
41800;BME280;27468;47.460;19.034;2023-02-13T06:45:07;102541.38;;;-2.35;82.47
41800;BME280;27468;47.460;19.034;2023-02-13T06:47:33;102546.22;;;-2.26;82.40
41800;BME280;27468;47.460;19.034;2023-02-13T06:49:59;102539.06;;;-2.30;82.88
41800;BME280;27468;47.460;19.034;2023-02-13T06:52:24;102600.16;;;-1.92;82.66
41800;BME280;27468;47.460;19.034;2023-02-13T06:54:50;102483.44;;;-2.51;82.50
41800;BME280;27468;47.460;19.034;2023-02-13T06:57:15;102528.47;;;-2.35;82.77
41800;BME280;27468;47.460;19.034;2023-02-13T06:59:41;102583.84;;;-1.91;82.92
41800;BME280;27468;47.460;19.034;2023-02-13T07:02:09;102589.22;;;-1.88;82.83
41800;BME280;27468;47.460;19.034;2023-02-13T07:04:35;102596.91;;;-1.77;83.09
41800;BME280;27468;47.460;19.034;2023-02-13T07:07:00;102556.13;;;-1.94;82.81
41800;BME280;27468;47.460;19.034;2023-02-13T07:09:26;102607.22;;;-1.63;82.93
41800;BME280;27468;47.460;19.034;2023-02-13T07:11:51;102557.22;;;-1.77;82.92
41800;BME280;27468;47.460;19.034;2023-02-13T07:14:16;102615.97;;;-1.48;82.71
41800;BME280;27468;47.460;19.034;2023-02-13T07:16:42;102567.44;;;-1.66;82.69
41800;BME280;27468;47.460;19.034;2023-02-13T07:19:07;102529.47;;;-1.80;82.77
41800;BME280;27468;47.460;19.034;2023-02-13T07:21:35;102591.91;;;-1.47;82.53
41800;BME280;27468;47.460;19.034;2023-02-13T07:24:02;102545.25;;;-1.62;82.61
41800;BME280;27468;47.460;19.034;2023-02-13T07:26:28;102579.53;;;-1.38;82.87
41800;BME280;27468;47.460;19.034;2023-02-13T07:28:53;102506.84;;;-1.69;82.83
41800;BME280;27468;47.460;19.034;2023-02-13T07:31:22;102597.78;;;-1.09;82.74
41800;BME280;27468;47.460;19.034;2023-02-13T07:33:48;102613.09;;;-0.98;82.77
41800;BME280;27468;47.460;19.034;2023-02-13T07:36:16;102533.88;;;-1.38;82.80
41800;BME280;27468;47.460;19.034;2023-02-13T07:38:42;102581.22;;;-0.97;82.71
41800;BME280;27468;47.460;19.034;2023-02-13T07:41:08;102550.38;;;-1.08;82.90
41800;BME280;27468;47.460;19.034;2023-02-13T07:43:33;102594.88;;;-0.72;82.94
41800;BME280;27468;47.460;19.034;2023-02-13T07:46:00;102607.69;;;-0.60;82.86
41800;BME280;27468;47.460;19.034;2023-02-13T07:48:26;102554.31;;;-0.86;83.03
41800;BME280;27468;47.460;19.034;2023-02-13T07:50:52;102561.84;;;-0.76;82.82
41800;BME280;27468;47.460;19.034;2023-02-13T07:53:17;102567.56;;;-0.67;83.08
41800;BME280;27468;47.460;19.034;2023-02-13T07:55:43;102614.44;;;-0.35;83.01
41800;BME280;27468;47.460;19.034;2023-02-13T07:58:08;102619.28;;;-0.26;82.85
41800;BME280;27468;47.460;19.034;2023-02-13T08:00:34;102590.22;;;-0.35;83.06
41800;BME280;27468;47.460;19.034;2023-02-13T08:03:00;102561.25;;;-0.43;82.88
41800;BME280;27468;47.460;19.034;2023-02-13T08:05:26;102620.53;;;-0.05;82.98
41800;BME280;27468;47.460;19.034;2023-02-13T08:07:52;102612.28;;;0.03;83.31
41800;BME280;27468;47.460;19.034;2023-02-13T08:10:18;102620.69;;;0.13;83.25
41800;BME280;27468;47.460;19.034;2023-02-13T08:13:02;102621.94;;;0.20;82.30
41800;BME280;27468;47.460;19.034;2023-02-13T08:15:28;102549.81;;;-0.02;81.55
41800;BME280;27468;47.460;19.034;2023-02-13T08:17:54;102610.66;;;0.49;81.37
41800;BME280;27468;47.460;19.034;2023-02-13T08:20:19;102591.78;;;0.51;80.47
41800;BME280;27468;47.460;19.034;2023-02-13T08:22:44;102560.91;;;0.41;80.32
41800;BME280;27468;47.460;19.034;2023-02-13T08:25:10;102592.50;;;0.65;79.94
41800;BME280;27468;47.460;19.034;2023-02-13T08:27:35;102592.03;;;0.72;78.95
41800;BME280;27468;47.460;19.034;2023-02-13T08:30:01;102603.38;;;0.89;78.30
41800;BME280;27468;47.460;19.034;2023-02-13T08:32:27;102571.88;;;0.83;77.00
41800;BME280;27468;47.460;19.034;2023-02-13T08:34:53;102604.22;;;1.04;75.40
41800;BME280;27468;47.460;19.034;2023-02-13T08:37:18;102592.69;;;1.15;75.17
41800;BME280;27468;47.460;19.034;2023-02-13T08:39:43;102565.66;;;1.12;74.17
41800;BME280;27468;47.460;19.034;2023-02-13T08:42:09;102555.81;;;1.22;74.60
41800;BME280;27468;47.460;19.034;2023-02-13T08:44:34;102573.75;;;1.34;73.98
41800;BME280;27468;47.460;19.034;2023-02-13T08:47:00;102562.78;;;1.40;74.41
41800;BME280;27468;47.460;19.034;2023-02-13T08:49:28;102593.31;;;1.60;73.29
41800;BME280;27468;47.460;19.034;2023-02-13T08:51:54;102585.66;;;1.63;72.83
41800;BME280;27468;47.460;19.034;2023-02-13T08:54:19;102579.50;;;1.61;71.85
41800;BME280;27468;47.460;19.034;2023-02-13T08:56:45;102554.25;;;1.58;71.41
41800;BME280;27468;47.460;19.034;2023-02-13T08:59:10;102580.22;;;1.92;71.04
41800;BME280;27468;47.460;19.034;2023-02-13T09:01:36;102585.66;;;1.97;70.98
41800;BME280;27468;47.460;19.034;2023-02-13T09:04:01;102588.56;;;2.03;70.33
41800;BME280;27468;47.460;19.034;2023-02-13T09:06:27;102517.34;;;1.65;68.57
41800;BME280;27468;47.460;19.034;2023-02-13T09:08:53;102593.72;;;2.19;69.06
41800;BME280;27468;47.460;19.034;2023-02-13T09:11:18;102594.91;;;2.26;68.40
41800;BME280;27468;47.460;19.034;2023-02-13T09:13:47;102586.31;;;2.27;68.90
41800;BME280;27468;47.460;19.034;2023-02-13T09:16:12;102578.91;;;2.36;68.46
41800;BME280;27468;47.460;19.034;2023-02-13T09:18:38;102581.00;;;2.43;68.25
41800;BME280;27468;47.460;19.034;2023-02-13T09:21:08;102590.22;;;2.54;67.84
41800;BME280;27468;47.460;19.034;2023-02-13T09:23:37;102581.72;;;2.58;67.79
41800;BME280;27468;47.460;19.034;2023-02-13T09:26:08;102591.03;;;2.71;67.53
41800;BME280;27468;47.460;19.034;2023-02-13T09:28:35;102585.75;;;2.70;66.23
41800;BME280;27468;47.460;19.034;2023-02-13T09:31:11;102537.03;;;2.49;65.86
41800;BME280;27468;47.460;19.034;2023-02-13T09:33:37;102544.53;;;2.61;66.13
41800;BME280;27468;47.460;19.034;2023-02-13T09:36:07;102591.41;;;2.98;65.55
41800;BME280;27468;47.460;19.034;2023-02-13T09:38:33;102579.47;;;3.03;65.86
41800;BME280;27468;47.460;19.034;2023-02-13T09:41:03;102535.25;;;2.85;65.61
41800;BME280;27468;47.460;19.034;2023-02-13T09:43:36;102587.19;;;3.19;65.61
41800;BME280;27468;47.460;19.034;2023-02-13T09:46:24;102577.16;;;3.28;64.95
41800;BME280;27468;47.460;19.034;2023-02-13T09:48:54;102542.53;;;3.12;64.22
41800;BME280;27468;47.460;19.034;2023-02-13T09:51:21;102545.59;;;3.22;64.36
41800;BME280;27468;47.460;19.034;2023-02-13T09:53:59;102561.31;;;3.43;64.37
41800;BME280;27468;47.460;19.034;2023-02-13T09:56:38;102576.66;;;3.56;63.43
41800;BME280;27468;47.460;19.034;2023-02-13T09:59:34;102535.09;;;3.40;63.74
41800;BME280;27468;47.460;19.034;2023-02-13T10:10:37;102570.75;;;4.01;62.78
41800;BME280;27468;47.460;19.034;2023-02-13T10:19:07;102554.03;;;4.18;61.86
41800;BME280;27468;47.460;19.034;2023-02-13T10:21:51;102547.22;;;4.21;61.78
41800;BME280;27468;47.460;19.034;2023-02-13T10:27:31;102484.81;;;4.07;60.88
41800;BME280;27468;47.460;19.034;2023-02-13T10:30:06;102523.25;;;4.31;61.22
41800;BME280;27468;47.460;19.034;2023-02-13T10:35:26;102534.13;;;4.64;61.09
41800;BME280;27468;47.460;19.034;2023-02-13T10:37:55;102515.88;;;4.66;61.47
41800;BME280;27468;47.460;19.034;2023-02-13T10:40:30;102534.53;;;4.75;60.14
41800;BME280;27468;47.460;19.034;2023-02-13T10:43:19;102524.44;;;4.84;60.79
41800;BME280;27468;47.460;19.034;2023-02-13T10:46:06;102526.72;;;4.99;60.24
41800;BME280;27468;47.460;19.034;2023-02-13T10:48:59;102526.06;;;5.05;59.06
41800;BME280;27468;47.460;19.034;2023-02-13T10:52:06;102499.94;;;5.05;59.10
41800;BME280;27468;47.460;19.034;2023-02-13T10:57:25;102480.19;;;5.13;59.59
41800;BME280;27468;47.460;19.034;2023-02-13T11:00:08;102479.81;;;5.27;59.25
41800;BME280;27468;47.460;19.034;2023-02-13T11:02:35;102493.44;;;5.43;59.64
41800;BME280;27468;47.460;19.034;2023-02-13T11:05:20;102430.50;;;5.13;58.52
41800;BME280;27468;47.460;19.034;2023-02-13T11:07:47;102437.06;;;5.27;58.24
41800;BME280;27468;47.460;19.034;2023-02-13T11:10:19;102456.22;;;5.51;58.10
41800;BME280;27468;47.460;19.034;2023-02-13T11:12:45;102461.72;;;5.59;57.72
41800;BME280;27468;47.460;19.034;2023-02-13T11:15:29;102475.34;;;5.74;57.61
41800;BME280;27468;47.460;19.034;2023-02-13T11:17:57;102458.03;;;5.79;57.94
41800;BME280;27468;47.460;19.034;2023-02-13T11:20:34;102459.09;;;5.86;57.36
41800;BME280;27468;47.460;19.034;2023-02-13T11:26:03;102466.47;;;5.96;56.89
41800;BME280;27468;47.460;19.034;2023-02-13T11:28:43;102463.16;;;6.02;56.45
41800;BME280;27468;47.460;19.034;2023-02-13T11:33:46;102449.50;;;6.12;56.61
41800;BME280;27468;47.460;19.034;2023-02-13T11:36:15;102402.63;;;5.92;56.36
41800;BME280;27468;47.460;19.034;2023-02-13T11:38:40;102387.91;;;5.96;56.01
41800;BME280;27468;47.460;19.034;2023-02-13T11:41:18;102448.38;;;6.31;55.59
41800;BME280;27468;47.460;19.034;2023-02-13T11:43:54;102438.94;;;6.37;55.37
41800;BME280;27468;47.460;19.034;2023-02-13T11:46:27;102392.22;;;6.22;55.63
41800;BME280;27468;47.460;19.034;2023-02-13T11:48:57;102432.31;;;6.50;55.50
41800;BME280;27468;47.460;19.034;2023-02-13T11:51:40;102438.63;;;6.56;55.73
41800;BME280;27468;47.460;19.034;2023-02-13T11:54:21;102412.47;;;6.58;55.16
41800;BME280;27468;47.460;19.034;2023-02-13T11:56:50;102408.97;;;6.57;55.53
41800;BME280;27468;47.460;19.034;2023-02-13T11:59:15;102377.03;;;6.41;55.47
41800;BME280;27468;47.460;19.034;2023-02-13T12:01:42;102382.59;;;6.51;55.72
41800;BME280;27468;47.460;19.034;2023-02-13T12:04:16;102415.53;;;6.73;55.02
41800;BME280;27468;47.460;19.034;2023-02-13T12:07:00;102385.25;;;6.53;54.83
41800;BME280;27468;47.460;19.034;2023-02-13T12:09:26;102411.31;;;6.78;55.03
41800;BME280;27468;47.460;19.034;2023-02-13T12:11:54;102377.59;;;6.60;54.74
41800;BME280;27468;47.460;19.034;2023-02-13T12:14:26;102415.97;;;6.88;54.55
41800;BME280;27468;47.460;19.034;2023-02-13T12:17:07;102399.34;;;6.88;54.43
41800;BME280;27468;47.460;19.034;2023-02-13T12:35:24;102355.94;;;6.99;54.62
41800;BME280;27468;47.460;19.034;2023-02-13T12:40:48;102378.31;;;7.19;55.02
41800;BME280;27468;47.460;19.034;2023-02-13T12:46:29;102322.00;;;7.05;54.56
41800;BME280;27468;47.460;19.034;2023-02-13T13:00:28;102339.75;;;7.51;54.43
41800;BME280;27468;47.460;19.034;2023-02-13T13:10:55;102302.03;;;7.46;53.98
41800;BME280;27468;47.460;19.034;2023-02-13T13:16:40;102330.78;;;7.79;53.50
41800;BME280;27468;47.460;19.034;2023-02-13T13:27:42;102294.31;;;7.93;53.66
41800;BME280;27468;47.460;19.034;2023-02-13T13:30:13;102323.81;;;8.22;53.52
41800;BME280;27468;47.460;19.034;2023-02-13T13:32:43;102323.88;;;8.25;53.44
41800;BME280;27468;47.460;19.034;2023-02-13T13:35:19;102303.72;;;8.24;53.84
41800;BME280;27468;47.460;19.034;2023-02-13T13:38:55;102313.56;;;8.33;53.41
41800;BME280;27468;47.460;19.034;2023-02-13T13:40:55;102277.91;;;8.03;53.28
41800;BME280;27468;47.460;19.034;2023-02-13T13:48:56;102314.00;;;8.54;52.91
41800;BME280;27468;47.460;19.034;2023-02-13T13:51:24;102312.16;;;8.50;52.53
41800;BME280;27468;47.460;19.034;2023-02-13T14:05:18;102311.31;;;8.51;52.82
41800;BME280;27468;47.460;19.034;2023-02-13T14:07:45;102248.34;;;8.15;52.77
41800;BME280;27468;47.460;19.034;2023-02-13T14:13:08;102299.56;;;8.34;52.29
41800;BME280;27468;47.460;19.034;2023-02-13T14:18:00;102313.09;;;8.53;52.40
41800;BME280;27468;47.460;19.034;2023-02-13T14:20:37;102307.59;;;8.41;52.63
41800;BME280;27468;47.460;19.034;2023-02-13T14:23:16;102310.00;;;8.32;53.50
41800;BME280;27468;47.460;19.034;2023-02-13T14:25:43;102330.28;;;8.36;53.41
41800;BME280;27468;47.460;19.034;2023-02-13T14:30:44;102324.00;;;8.31;53.42
41800;BME280;27468;47.460;19.034;2023-02-13T14:33:25;102300.00;;;8.14;53.45
41800;BME280;27468;47.460;19.034;2023-02-13T14:36:05;102299.06;;;8.11;53.56
41800;BME280;27468;47.460;19.034;2023-02-13T14:38:32;102329.88;;;8.19;54.16
41800;BME280;27468;47.460;19.034;2023-02-13T14:40:58;102267.94;;;7.87;53.99
41800;BME280;27468;47.460;19.034;2023-02-13T14:43:49;102330.66;;;8.14;54.78
41800;BME280;27468;47.460;19.034;2023-02-13T14:46:25;102279.13;;;7.78;55.17
41800;BME280;27468;47.460;19.034;2023-02-13T14:49:00;102326.19;;;8.10;55.34
41800;BME280;27468;47.460;19.034;2023-02-13T14:51:54;102329.66;;;8.09;55.15
41800;BME280;27468;47.460;19.034;2023-02-13T14:54:48;102323.38;;;8.01;55.56
41800;BME280;27468;47.460;19.034;2023-02-13T14:59:46;102331.22;;;7.99;55.71
41800;BME280;27468;47.460;19.034;2023-02-13T15:02:25;102329.19;;;7.86;56.15
41800;BME280;27468;47.460;19.034;2023-02-13T15:04:57;102334.38;;;7.83;56.65
41800;BME280;27468;47.460;19.034;2023-02-13T15:07:57;102339.63;;;7.83;56.87
41800;BME280;27468;47.460;19.034;2023-02-13T15:10:40;102333.31;;;7.75;57.15
41800;BME280;27468;47.460;19.034;2023-02-13T15:13:19;102319.88;;;7.62;57.28
41800;BME280;27468;47.460;19.034;2023-02-13T15:15:59;102327.75;;;7.62;57.50
41800;BME280;27468;47.460;19.034;2023-02-13T15:18:52;102324.09;;;7.56;57.71
41800;BME280;27468;47.460;19.034;2023-02-13T15:21:21;102337.22;;;7.56;57.77
41800;BME280;27468;47.460;19.034;2023-02-13T15:23:53;102336.16;;;7.46;58.05
41800;BME280;27468;47.460;19.034;2023-02-13T15:26:21;102326.06;;;7.27;58.57
41800;BME280;27468;47.460;19.034;2023-02-13T15:28:59;102307.19;;;7.07;58.64
41800;BME280;27468;47.460;19.034;2023-02-13T15:31:29;102349.97;;;7.39;58.57
41800;BME280;27468;47.460;19.034;2023-02-13T15:33:55;102334.97;;;7.34;58.29
41800;BME280;27468;47.460;19.034;2023-02-13T15:36:25;102350.09;;;7.44;58.42